Time;durP1;ratioP1;P1;durP2;ratioP2;P2;SDS_P1;SDS_P2;PMS_P1;PMS_P2;Temp;Humidity;BMP_temperature;BMP_pressure;BME280_temperature;BME280_humidity;BME280_pressure;Samples;Min_cycle;Max_cycle;Signal;HPM_P1;HPM_P2
2022/08/01 00:00:41;;;;;;;;;;;;;;;17.99;100.00;100043.20;1464801;88;20306;-83
2022/08/01 00:03:07;;;;;;;;;;;;;;;18.01;100.00;100042.49;1461080;86;20280;-82
2022/08/01 00:05:33;;;;;;;;;;;;;;;18.09;100.00;100045.98;1457666;88;20350;-82
2022/08/01 00:08:32;;;;;;;;;;;;;;;18.14;100.00;100038.16;1465128;88;20319;-83
2022/08/01 00:14:47;;;;;;;;;;;;;;;18.21;100.00;100039.81;1382352;90;21599;-84
2022/08/01 00:17:59;;;;;;;;;;;;;;;18.20;100.00;100044.03;1375604;94;20312;-83
2022/08/01 00:23:16;;;;;;;;;;;;;;;18.19;100.00;100041.05;1408855;91;20281;-84
2022/08/01 00:25:42;;;;;;;;;;;;;;;18.21;100.00;100038.97;1412493;91;20384;-85
2022/08/01 00:28:23;;;;;;;;;;;;;;;18.23;100.00;100044.95;1403880;91;20833;-83
2022/08/01 00:31:10;;;;;;;;;;;;;;;18.24;100.00;100041.23;1405203;91;20324;-84
2022/08/01 00:34:04;;;;;;;;;;;;;;;18.25;100.00;100046.91;1416563;89;20427;-85
2022/08/01 00:36:30;;;;;;;;;;;;;;;18.28;100.00;100042.48;1435554;89;20368;-83
2022/08/01 00:38:57;;;;;;;;;;;;;;;18.29;100.00;100044.12;1429174;89;20366;-84
2022/08/01 00:41:23;;;;;;;;;;;;;;;18.25;100.00;100041.55;1445919;89;20439;-84
2022/08/01 00:43:49;;;;;;;;;;;;;;;18.29;100.00;100040.10;1445370;89;20299;-84
2022/08/01 00:46:21;;;;;;;;;;;;;;;18.31;100.00;100042.59;1452736;89;20335;-84
2022/08/01 00:49:03;;;;;;;;;;;;;;;18.29;100.00;100040.63;1468819;86;20824;-84
2022/08/01 00:51:44;;;;;;;;;;;;;;;18.31;100.00;100039.91;1466756;86;20399;-84
2022/08/01 01:08:06;;;;;;;;;;;;;;;18.17;100.00;100041.24;1313845;98;21068;-84
2022/08/01 01:10:41;;;;;;;;;;;;;;;18.13;100.00;100049.91;1325756;97;20369;-84
2022/08/01 01:13:28;;;;;;;;;;;;;;;18.08;100.00;100053.20;1371778;93;20365;-85
2022/08/01 01:16:21;;;;;;;;;;;;;;;18.06;100.00;100053.09;1391682;92;20349;-86
2022/08/01 01:19:07;;;;;;;;;;;;;;;18.06;100.00;100054.43;1375158;93;20727;-85
2022/08/01 01:22:18;;;;;;;;;;;;;;;18.01;100.00;100050.53;1392933;92;21474;-86
2022/08/01 01:24:51;;;;;;;;;;;;;;;18.03;100.00;100052.98;1373178;92;20760;-86
2022/08/01 01:27:53;;;;;;;;;;;;;;;18.04;100.00;100057.33;1380767;92;20520;-85
2022/08/01 01:38:01;;;;;;;;;;;;;;;;;;;;;
2022/08/01 01:53:54;;;;;;;;;;;;;;;;;;;;;
2022/08/01 01:56:50;;;;;;;;;;;;;;;18.06;100.00;100061.94;1378516;94;20729;-86
2022/08/01 01:59:35;;;;;;;;;;;;;;;18.01;100.00;100059.05;1353575;94;21579;-85
2022/08/01 02:05:20;;;;;;;;;;;;;;;17.94;100.00;100054.22;1376758;93;20676;-85
2022/08/01 02:07:53;;;;;;;;;;;;;;;17.96;100.00;100059.69;1389830;92;21424;-86
2022/08/01 02:14:22;;;;;;;;;;;;;;;17.85;99.96;100056.27;1462379;88;20310;-87
2022/08/01 02:17:00;;;;;;;;;;;;;;;17.77;99.57;100059.10;1476240;87;20415;-86
2022/08/01 02:26:51;;;;;;;;;;;;;;;17.49;100.00;100058.75;1461116;87;20809;-86
2022/08/01 02:29:52;;;;;;;;;;;;;;;17.45;100.00;100049.46;1460129;87;20309;-86
2022/08/01 02:32:22;;;;;;;;;;;;;;;17.46;100.00;100047.09;1473001;87;20377;-86
2022/08/01 02:34:52;;;;;;;;;;;;;;;17.49;100.00;100043.19;1395708;92;20283;-85
2022/08/01 02:37:23;;;;;;;;;;;;;;;17.49;100.00;100041.36;1387699;94;20433;-85
2022/08/01 02:39:54;;;;;;;;;;;;;;;17.47;100.00;100047.42;1368348;94;20357;-85
2022/08/01 02:42:29;;;;;;;;;;;;;;;17.52;100.00;100046.31;1385013;94;20659;-86
2022/08/01 02:44:57;;;;;;;;;;;;;;;17.51;100.00;100047.31;1372797;94;20304;-85
2022/08/01 02:47:26;;;;;;;;;;;;;;;17.56;99.62;100048.06;1383357;94;20791;-85
2022/08/01 02:49:53;;;;;;;;;;;;;;;17.55;99.38;100051.25;1379350;94;20349;-85
2022/08/01 02:52:21;;;;;;;;;;;;;;;17.57;99.09;100051.85;1397741;91;20428;-85
2022/08/01 02:54:55;;;;;;;;;;;;;;;17.58;99.33;100048.17;1418267;92;20429;-85
2022/08/01 02:57:21;;;;;;;;;;;;;;;17.64;98.94;100048.39;1413331;92;20401;-85
2022/08/01 02:59:55;;;;;;;;;;;;;;;17.64;99.44;100047.88;1393847;92;20456;-85
2022/08/01 03:02:25;;;;;;;;;;;;;;;17.65;100.00;100046.02;1408089;92;20302;-86
2022/08/01 03:04:52;;;;;;;;;;;;;;;17.64;99.05;100049.73;1394246;92;20326;-87
2022/08/01 03:07:19;;;;;;;;;;;;;;;17.62;98.63;100044.56;1408964;92;20334;-85
2022/08/01 03:09:49;;;;;;;;;;;;;;;17.64;98.82;100046.53;1386407;92;20446;-84
2022/08/01 03:12:29;;;;;;;;;;;;;;;17.63;99.82;100041.38;1404647;91;20320;-83
2022/08/01 03:15:14;;;;;;;;;;;;;;;17.62;98.95;100042.41;1440081;89;20436;-84
2022/08/01 03:17:41;;;;;;;;;;;;;;;17.62;99.06;100040.55;1456934;89;20354;-83
2022/08/01 03:20:24;;;;;;;;;;;;;;;;;;;;;
2022/08/01 03:23:09;;;;;;;;;;;;;;;17.58;100.00;100040.14;1431726;90;20349;-84
2022/08/01 03:25:38;;;;;;;;;;;;;;;17.53;100.00;100042.59;1433098;89;20461;-84
2022/08/01 03:28:30;;;;;;;;;;;;;;;17.51;100.00;100043.81;1435691;90;20354;-84
2022/08/01 03:31:23;;;;;;;;;;;;;;;17.48;100.00;100046.38;1447365;89;20346;-84
2022/08/01 03:52:46;;;;;;;;;;;;;;;17.58;99.52;100061.55;1368004;92;20270;-84
2022/08/01 04:02:07;;;;;;;;;;;;;;;17.68;97.79;100058.98;1403449;90;20479;-85
2022/08/01 04:04:51;;;;;;;;;;;;;;;17.75;97.70;100059.81;1429348;91;20538;-83
2022/08/01 04:08:10;;;;;;;;;;;;;;;17.79;97.66;100063.26;1413014;89;20310;-83
2022/08/01 04:10:40;;;;;;;;;;;;;;;17.82;98.21;100068.73;1444275;89;20982;-83
2022/08/01 04:13:43;;;;;;;;;;;;;;;17.84;97.44;100062.66;1404130;89;20647;-81
2022/08/01 04:16:14;;;;;;;;;;;;;;;17.85;97.49;100066.98;1429763;89;20317;-84
2022/08/01 04:19:07;;;;;;;;;;;;;;;17.93;97.92;100067.30;1456919;87;20428;-82
2022/08/01 04:25:42;;;;;;;;;;;;;;;17.96;96.33;100074.41;1442317;88;20314;-91
2022/08/01 04:28:44;;;;;;;;;;;;;;;17.93;95.33;100074.00;1455064;88;20683;-88
2022/08/01 04:31:15;;;;;;;;;;;;;;;17.93;95.95;100066.78;1442843;88;20329;-92
2022/08/01 04:33:57;;;;;;;;;;;;;;;17.95;95.37;100071.43;1524744;89;20233;-88
2022/08/01 04:36:38;;;;;;;;;;;;;;;17.95;95.58;100070.09;1390298;89;20315;-87
2022/08/01 04:39:27;;;;;;;;;;;;;;;17.95;95.93;100072.77;1469985;90;20285;-88
2022/08/01 04:49:28;;;;;;;;;;;;;;;18.05;95.48;100075.03;1456834;88;20917;-88
2022/08/01 05:01:15;;;;;;;;;;;;;;;18.12;94.24;100080.38;1357784;94;20263;-86
2022/08/01 05:03:50;;;;;;;;;;;;;;;18.19;94.21;100076.69;1390139;92;20349;-86
2022/08/01 05:06:25;;;;;;;;;;;;;;;18.23;93.87;100081.11;1390136;92;20380;-86
2022/08/01 05:08:51;;;;;;;;;;;;;;;18.32;94.01;100081.20;1347610;94;20584;-87
2022/08/01 05:11:22;;;;;;;;;;;;;;;18.40;93.90;100076.16;1395275;92;21111;-86
2022/08/01 05:13:55;;;;;;;;;;;;;;;18.45;93.80;100077.71;1394358;92;21395;-86
2022/08/01 05:16:24;;;;;;;;;;;;;;;18.52;93.20;100073.67;1392447;92;20499;-87
2022/08/01 05:19:09;;;;;;;;;;;;;;;18.54;92.83;100072.96;1377630;94;20888;-88
2022/08/01 05:21:34;;;;;;;;;;;;;;;18.59;92.90;100074.51;1366469;95;21214;-90
2022/08/01 05:24:00;;;;;;;;;;;;;;;18.63;92.28;100081.09;1352772;95;20659;-90
2022/08/01 05:26:36;;;;;;;;;;;;;;;18.61;92.25;100081.80;1379627;93;20374;-91
2022/08/01 05:29:03;;;;;;;;;;;;;;;18.57;92.39;100080.58;1399016;93;20320;-88
2022/08/01 05:31:29;;;;;;;;;;;;;;;18.54;91.84;100086.36;1395484;93;20445;-88
2022/08/01 05:33:55;;;;;;;;;;;;;;;18.51;91.61;100086.78;1366793;94;21517;-88
2022/08/01 05:36:21;;;;;;;;;;;;;;;18.47;90.78;100084.52;1391429;93;20379;-88
2022/08/01 05:38:47;;;;;;;;;;;;;;;18.45;91.37;100088.43;1404280;93;20394;-91
2022/08/01 05:41:13;;;;;;;;;;;;;;;18.41;91.57;100093.88;1396340;93;20297;-89
2022/08/01 05:43:40;;;;;;;;;;;;;;;18.41;91.32;100094.72;1400801;93;20565;-89
2022/08/01 05:46:07;;;;;;;;;;;;;;;18.31;89.77;100103.68;1405548;93;20391;-89
2022/08/01 05:48:33;;;;;;;;;;;;;;;18.31;90.78;100105.02;1421863;88;20335;-88
2022/08/01 05:51:01;;;;;;;;;;;;;;;18.33;91.45;100108.33;1468415;87;20259;-89
2022/08/01 05:53:27;;;;;;;;;;;;;;;18.35;91.38;100107.58;1473428;86;20295;-88
2022/08/01 05:55:53;;;;;;;;;;;;;;;18.43;92.28;100107.38;1483710;86;20275;-89
2022/08/01 05:58:19;;;;;;;;;;;;;;;18.47;90.39;100111.31;1481762;86;20446;-87
2022/08/01 06:00:45;;;;;;;;;;;;;;;18.53;90.12;100106.13;1502807;86;20273;-88
2022/08/01 06:03:11;;;;;;;;;;;;;;;18.61;90.09;100116.64;1478352;86;20364;-88
2022/08/01 06:05:37;;;;;;;;;;;;;;;18.64;87.69;100114.88;1489644;86;20878;-88
2022/08/01 06:08:03;;;;;;;;;;;;;;;18.66;87.28;100114.17;1496418;86;20273;-88
2022/08/01 06:10:29;;;;;;;;;;;;;;;18.72;87.90;100115.49;1493593;86;20387;-87
2022/08/01 06:12:55;;;;;;;;;;;;;;;18.80;88.44;100119.03;1485473;86;20372;-87
2022/08/01 06:15:21;;;;;;;;;;;;;;;18.79;86.49;100119.55;1479485;86;20317;-89
2022/08/01 06:17:47;;;;;;;;;;;;;;;18.83;87.32;100118.61;1488236;86;20287;-88
2022/08/01 06:20:13;;;;;;;;;;;;;;;18.87;88.12;100123.85;1486397;86;21062;-86
2022/08/01 06:22:39;;;;;;;;;;;;;;;18.88;87.13;100121.50;1483155;86;20356;-88
2022/08/01 06:25:06;;;;;;;;;;;;;;;18.79;85.10;100124.92;1491257;86;21606;-87
2022/08/01 06:27:34;;;;;;;;;;;;;;;18.73;85.19;100125.72;1493679;86;20899;-86
2022/08/01 06:30:00;;;;;;;;;;;;;;;18.75;86.54;100129.03;1490993;86;21244;-87
2022/08/01 06:32:26;;;;;;;;;;;;;;;18.76;87.77;100128.51;1483232;86;20276;-87
2022/08/01 06:34:52;;;;;;;;;;;;;;;18.76;87.57;100125.83;1480728;88;20807;-86
2022/08/01 06:37:18;;;;;;;;;;;;;;;18.75;87.66;100134.39;1489698;86;20280;-86
2022/08/01 06:39:46;;;;;;;;;;;;;;;18.74;87.76;100137.30;1485976;86;20444;-86
2022/08/01 06:42:14;;;;;;;;;;;;;;;18.75;87.12;100134.91;1481203;86;20796;-86
2022/08/01 06:44:40;;;;;;;;;;;;;;;18.76;87.35;100133.38;1490019;86;20236;-86
2022/08/01 06:47:06;;;;;;;;;;;;;;;18.80;87.37;100138.62;1484386;86;20372;-85
2022/08/01 06:49:32;;;;;;;;;;;;;;;18.81;87.92;100136.23;1497185;86;20253;-86
2022/08/01 06:51:58;;;;;;;;;;;;;;;18.86;87.51;100140.46;1481291;86;20357;-85
2022/08/01 06:54:24;;;;;;;;;;;;;;;18.92;87.30;100138.28;1499140;86;20302;-85
2022/08/01 06:56:50;;;;;;;;;;;;;;;18.99;87.54;100144.14;1473498;86;20291;-85
2022/08/01 06:59:16;;;;;;;;;;;;;;;19.11;87.49;100138.47;1464361;89;20306;-85
2022/08/01 07:01:41;;;;;;;;;;;;;;;19.22;85.71;100139.65;1468371;87;20283;-84
2022/08/01 07:04:07;;;;;;;;;;;;;;;19.41;86.45;100146.00;1474836;87;20801;-84
2022/08/01 07:06:33;;;;;;;;;;;;;;;19.48;85.03;100136.05;1474712;88;20269;-84
2022/08/01 07:09:01;;;;;;;;;;;;;;;19.61;83.83;100134.66;1474255;87;20927;-86
2022/08/01 07:11:27;;;;;;;;;;;;;;;19.63;81.67;100141.98;1487222;87;20829;-86
2022/08/01 07:13:53;;;;;;;;;;;;;;;19.66;82.67;100145.61;1479686;88;20292;-88
2022/08/01 07:16:18;;;;;;;;;;;;;;;19.72;83.51;100144.75;1468978;88;20261;-88
2022/08/01 07:18:44;;;;;;;;;;;;;;;19.71;81.93;100151.66;1466580;89;21492;-88
2022/08/01 07:21:11;;;;;;;;;;;;;;;19.73;83.22;100150.42;1466359;89;20283;-85
2022/08/01 07:23:37;;;;;;;;;;;;;;;19.77;82.31;100140.91;1460736;89;20387;-85
2022/08/01 07:26:03;;;;;;;;;;;;;;;19.82;82.82;100142.44;1432492;89;20401;-85
2022/08/01 07:28:30;;;;;;;;;;;;;;;19.88;81.67;100141.25;1443572;89;20383;-85
2022/08/01 07:30:55;;;;;;;;;;;;;;;19.94;82.84;100140.39;1453657;89;20335;-85
2022/08/01 07:33:22;;;;;;;;;;;;;;;19.87;81.26;100135.06;1455023;89;20870;-85
2022/08/01 07:35:48;;;;;;;;;;;;;;;19.77;81.69;100139.57;1452171;89;21522;-85
2022/08/01 07:38:16;;;;;;;;;;;;;;;19.80;82.41;100135.64;1452949;89;20260;-85
2022/08/01 07:40:42;;;;;;;;;;;;;;;19.75;83.93;100138.95;1452594;89;20539;-85
2022/08/01 07:43:07;;;;;;;;;;;;;;;19.73;81.57;100131.63;1458246;89;20327;-85
2022/08/01 07:45:33;;;;;;;;;;;;;;;19.87;82.35;100135.59;1461417;89;20896;-85
2022/08/01 07:48:04;;;;;;;;;;;;;;;20.00;82.68;100130.97;1460792;89;20232;-85
2022/08/01 07:50:30;;;;;;;;;;;;;;;20.11;82.88;100137.52;1446613;89;20275;-86
2022/08/01 07:52:56;;;;;;;;;;;;;;;20.20;82.00;100137.55;1458615;89;20833;-86
2022/08/01 07:55:22;;;;;;;;;;;;;;;20.32;83.05;100138.19;1445839;88;20343;-86
2022/08/01 07:57:48;;;;;;;;;;;;;;;20.39;80.21;100143.80;1460628;89;21098;-86
2022/08/01 08:00:14;;;;;;;;;;;;;;;20.33;78.54;100141.98;1462509;89;20290;-86
2022/08/01 08:02:40;;;;;;;;;;;;;;;20.26;79.84;100140.70;1470713;89;20290;-86
2022/08/01 08:05:07;;;;;;;;;;;;;;;20.32;80.41;100144.39;1456013;90;20254;-86
2022/08/01 08:07:33;;;;;;;;;;;;;;;20.41;79.97;100144.41;1450497;90;20306;-86
2022/08/01 08:09:59;;;;;;;;;;;;;;;20.52;79.47;100149.61;1452821;90;20312;-86
2022/08/01 08:12:25;;;;;;;;;;;;;;;20.53;77.30;100149.11;1458400;90;20284;-87
2022/08/01 08:14:51;;;;;;;;;;;;;;;20.57;78.53;100147.12;1444924;90;20915;-86
2022/08/01 08:17:17;;;;;;;;;;;;;;;20.66;79.09;100151.17;1449566;90;20291;-86
2022/08/01 08:19:42;;;;;;;;;;;;;;;20.63;77.97;100152.11;1453106;90;20268;-86
2022/08/01 08:22:09;;;;;;;;;;;;;;;20.61;78.04;100153.69;1455634;90;20292;-86
2022/08/01 08:24:36;;;;;;;;;;;;;;;20.68;78.58;100147.72;1453647;90;21527;-86
2022/08/01 08:27:03;;;;;;;;;;;;;;;20.73;77.28;100149.23;1457303;90;20373;-86
2022/08/01 08:29:32;;;;;;;;;;;;;;;20.81;76.87;100154.03;1465702;89;20738;-86
2022/08/01 08:31:59;;;;;;;;;;;;;;;20.78;76.32;100157.17;1444262;88;20856;-85
2022/08/01 08:34:26;;;;;;;;;;;;;;;20.77;76.05;100153.63;1464871;88;20439;-86
2022/08/01 08:36:52;;;;;;;;;;;;;;;20.81;74.77;100159.42;1463281;89;20364;-86
2022/08/01 08:39:18;;;;;;;;;;;;;;;20.84;75.43;100158.97;1457844;88;20826;-86
2022/08/01 08:41:44;;;;;;;;;;;;;;;20.95;75.71;100150.99;1461965;89;20289;-86
2022/08/01 08:44:10;;;;;;;;;;;;;;;21.02;74.42;100150.09;1470432;89;20298;-86
2022/08/01 08:46:45;;;;;;;;;;;;;;;21.05;73.59;100152.34;1464577;89;20306;-85
2022/08/01 08:49:12;;;;;;;;;;;;;;;21.01;73.61;100151.97;1443315;90;20327;-86
2022/08/01 08:51:40;;;;;;;;;;;;;;;21.11;74.55;100157.64;1456039;90;20292;-86
2022/08/01 08:54:07;;;;;;;;;;;;;;;21.26;75.08;100160.49;1442561;89;20848;-86
2022/08/01 08:56:34;;;;;;;;;;;;;;;21.33;73.68;100158.56;1455739;89;20225;-86
2022/08/01 08:59:01;;;;;;;;;;;;;;;21.35;73.87;100155.95;1446015;89;20305;-86
2022/08/01 09:01:27;;;;;;;;;;;;;;;21.38;73.16;100157.41;1437100;91;20458;-86
2022/08/01 09:03:53;;;;;;;;;;;;;;;21.38;73.82;100159.56;1434488;91;20207;-86
2022/08/01 09:06:20;;;;;;;;;;;;;;;21.40;73.90;100160.67;1431376;91;20310;-86
2022/08/01 09:08:46;;;;;;;;;;;;;;;21.34;71.75;100159.66;1434103;91;20281;-86
2022/08/01 09:11:12;;;;;;;;;;;;;;;21.38;73.23;100168.17;1437932;91;20370;-86
2022/08/01 09:13:38;;;;;;;;;;;;;;;21.40;73.00;100160.67;1437410;91;20294;-86
2022/08/01 09:16:05;;;;;;;;;;;;;;;21.45;73.92;100168.90;1432672;91;20303;-86
2022/08/01 09:18:39;;;;;;;;;;;;;;;21.49;73.18;100163.38;1438013;91;20303;-86
2022/08/01 09:21:16;;;;;;;;;;;;;;;21.56;70.65;100170.84;1441463;91;20325;-86
2022/08/01 09:23:49;;;;;;;;;;;;;;;21.68;72.02;100168.73;1436504;91;20481;-86
2022/08/01 09:26:17;;;;;;;;;;;;;;;21.70;69.80;100164.77;1442963;91;20867;-86
2022/08/01 09:28:44;;;;;;;;;;;;;;;21.73;70.49;100163.50;1434087;91;20792;-86
2022/08/01 09:31:13;;;;;;;;;;;;;;;21.86;71.16;100168.69;1434829;91;20326;-86
2022/08/01 09:33:54;;;;;;;;;;;;;;;21.98;69.29;100164.19;1435414;91;20771;-86
2022/08/01 09:36:22;;;;;;;;;;;;;;;22.02;69.11;100161.31;1428354;91;20294;-86
2022/08/01 09:38:50;;;;;;;;;;;;;;;22.18;69.18;100161.73;1432379;91;20325;-86
2022/08/01 09:41:16;;;;;;;;;;;;;;;22.35;70.11;100168.11;1431456;91;20336;-86
2022/08/01 09:43:50;;;;;;;;;;;;;;;22.39;67.83;100163.91;1434456;91;20282;-86
2022/08/01 09:46:16;;;;;;;;;;;;;;;22.51;68.09;100160.70;1431282;91;20406;-86
2022/08/01 09:49:03;;;;;;;;;;;;;;;22.71;66.78;100164.95;1437372;91;20325;-86
2022/08/01 09:51:35;;;;;;;;;;;;;;;22.84;65.50;100163.34;1434512;91;20265;-86
2022/08/01 09:54:05;;;;;;;;;;;;;;;22.69;61.62;100161.66;1438910;91;20295;-86
2022/08/01 09:56:38;;;;;;;;;;;;;;;22.73;63.80;100159.61;1440275;91;20392;-86
2022/08/01 09:59:06;;;;;;;;;;;;;;;22.76;62.42;100156.98;1437828;90;20272;-86
2022/08/01 10:01:49;;;;;;;;;;;;;;;23.03;64.59;100170.02;1444946;91;20315;-86
2022/08/01 10:04:20;;;;;;;;;;;;;;;23.09;61.63;100166.37;1448294;91;21092;-85
2022/08/01 10:06:53;;;;;;;;;;;;;;;23.08;63.36;100170.14;1440356;91;21220;-86
2022/08/01 10:09:30;;;;;;;;;;;;;;;23.08;63.48;100172.84;1441114;91;20286;-87
2022/08/01 10:11:58;;;;;;;;;;;;;;;22.90;62.38;100182.67;1436529;91;20325;-87
2022/08/01 10:14:25;;;;;;;;;;;;;;;22.80;64.38;100172.16;1443112;91;20778;-86
2022/08/01 10:16:53;;;;;;;;;;;;;;;22.62;65.24;100177.14;1446128;91;20287;-87
2022/08/01 10:19:21;;;;;;;;;;;;;;;22.28;64.10;100176.84;1445335;91;20422;-87
2022/08/01 10:21:49;;;;;;;;;;;;;;;22.31;66.17;100177.72;1438822;91;20301;-87
2022/08/01 10:24:15;;;;;;;;;;;;;;;22.16;64.10;100175.43;1441494;90;20243;-87
2022/08/01 10:26:43;;;;;;;;;;;;;;;22.34;65.84;100177.26;1439357;91;20309;-86
2022/08/01 10:29:09;;;;;;;;;;;;;;;22.36;65.68;100177.86;1441428;91;20265;-87
2022/08/01 10:31:36;;;;;;;;;;;;;;;22.49;65.98;100171.42;1448699;91;20438;-87
2022/08/01 10:34:03;;;;;;;;;;;;;;;22.59;65.53;100177.08;1425936;91;20451;-86
2022/08/01 10:36:29;;;;;;;;;;;;;;;22.70;63.83;100178.12;1439400;91;20258;-87
2022/08/01 10:38:56;;;;;;;;;;;;;;;22.85;63.65;100174.45;1443368;91;20309;-86
2022/08/01 10:41:22;;;;;;;;;;;;;;;23.09;65.21;100182.03;1438967;91;20529;-87
2022/08/01 10:43:47;;;;;;;;;;;;;;;23.30;63.42;100175.19;1440556;91;20380;-87
2022/08/01 10:46:13;;;;;;;;;;;;;;;23.47;61.93;100181.22;1422154;91;20742;-87
2022/08/01 10:48:43;;;;;;;;;;;;;;;23.59;61.59;100177.95;1437361;91;20294;-87
2022/08/01 10:51:09;;;;;;;;;;;;;;;23.82;60.16;100172.52;1437352;90;20286;-86
2022/08/01 10:53:35;;;;;;;;;;;;;;;24.00;60.25;100169.33;1441855;91;20287;-87
2022/08/01 10:56:03;;;;;;;;;;;;;;;24.17;61.50;100167.98;1443346;91;20831;-87
2022/08/01 10:58:37;;;;;;;;;;;;;;;23.98;59.93;100170.09;1419695;91;20288;-87
2022/08/01 11:01:22;;;;;;;;;;;;;;;23.71;60.54;100173.88;1438491;90;20800;-87
2022/08/01 11:04:08;;;;;;;;;;;;;;;23.53;61.59;100174.31;1434735;91;20301;-87
2022/08/01 11:06:43;;;;;;;;;;;;;;;23.40;61.92;100176.77;1439425;91;20317;-86
2022/08/01 11:09:15;;;;;;;;;;;;;;;23.24;60.16;100178.03;1437577;91;20346;-86
2022/08/01 11:12:08;;;;;;;;;;;;;;;22.98;61.32;100183.67;1432207;90;20428;-86
2022/08/01 11:14:34;;;;;;;;;;;;;;;22.91;62.72;100176.20;1430823;91;20295;-86
2022/08/01 11:17:43;;;;;;;;;;;;;;;22.67;63.25;100173.19;1432176;91;20399;-86
2022/08/01 11:20:19;;;;;;;;;;;;;;;22.69;64.23;100175.14;1431923;91;20377;-86
2022/08/01 11:23:04;;;;;;;;;;;;;;;22.87;64.95;100171.50;1434399;91;20295;-86
2022/08/01 11:25:45;;;;;;;;;;;;;;;22.88;62.07;100171.28;1442072;91;20295;-86
2022/08/01 11:28:18;;;;;;;;;;;;;;;23.09;63.78;100169.88;1440905;91;20251;-86
2022/08/01 11:30:45;;;;;;;;;;;;;;;23.43;63.54;100170.08;1442872;91;20310;-86
2022/08/01 11:33:12;;;;;;;;;;;;;;;23.62;60.87;100167.50;1435299;91;20780;-86
2022/08/01 11:35:41;;;;;;;;;;;;;;;23.99;62.12;100170.37;1440488;91;20309;-85
2022/08/01 11:38:27;;;;;;;;;;;;;;;24.10;60.02;100167.60;1433472;91;20280;-85
2022/08/01 11:41:13;;;;;;;;;;;;;;;23.99;59.48;100164.96;1433963;90;20287;-86
2022/08/01 11:43:59;;;;;;;;;;;;;;;23.91;60.09;100166.70;1436178;91;20778;-86
2022/08/01 11:47:02;;;;;;;;;;;;;;;23.80;61.35;100167.88;1431230;91;20293;-86
2022/08/01 11:49:32;;;;;;;;;;;;;;;23.65;61.72;100160.80;1436084;91;20288;-86
2022/08/01 11:52:00;;;;;;;;;;;;;;;23.47;61.61;100159.07;1438902;91;20827;-86
2022/08/01 11:54:32;;;;;;;;;;;;;;;23.23;61.06;100163.71;1430805;91;20363;-86
2022/08/01 11:57:00;;;;;;;;;;;;;;;23.28;62.13;100154.38;1427962;91;20325;-86
2022/08/01 11:59:28;;;;;;;;;;;;;;;23.33;62.31;100155.84;1428857;90;20912;-86
2022/08/01 12:01:54;;;;;;;;;;;;;;;23.41;61.59;100146.53;1431321;92;20289;-86
2022/08/01 12:04:20;;;;;;;;;;;;;;;23.52;61.76;100147.56;1422165;92;20267;-86
2022/08/01 12:06:46;;;;;;;;;;;;;;;23.68;60.98;100147.31;1426025;92;20307;-86
2022/08/01 12:09:20;;;;;;;;;;;;;;;23.96;61.56;100138.42;1427769;92;20280;-86
2022/08/01 12:11:47;;;;;;;;;;;;;;;24.20;60.28;100144.54;1423302;91;20332;-86
2022/08/01 12:14:19;;;;;;;;;;;;;;;24.55;60.29;100141.63;1415639;91;20288;-86
2022/08/01 12:16:50;;;;;;;;;;;;;;;24.90;58.15;100135.09;1427975;91;20362;-86
2022/08/01 12:19:22;;;;;;;;;;;;;;;25.38;55.65;100128.19;1437962;91;20281;-86
2022/08/01 12:22:07;;;;;;;;;;;;;;;25.63;53.35;100132.52;1420215;91;20348;-86
2022/08/01 12:24:35;;;;;;;;;;;;;;;25.64;51.70;100132.81;1426385;90;20444;-86
2022/08/01 12:27:02;;;;;;;;;;;;;;;25.76;51.69;100126.43;1433749;91;20355;-86
2022/08/01 12:29:39;;;;;;;;;;;;;;;25.92;51.46;100123.35;1427195;92;20861;-86
2022/08/01 12:32:24;;;;;;;;;;;;;;;25.89;51.47;100130.10;1419157;90;20229;-86
2022/08/01 12:34:51;;;;;;;;;;;;;;;25.86;51.72;100126.55;1431246;90;20362;-87
2022/08/01 12:37:18;;;;;;;;;;;;;;;26.00;53.15;100127.77;1428491;92;20882;-87
2022/08/01 12:39:45;;;;;;;;;;;;;;;26.13;51.49;100121.13;1433493;91;20333;-87
2022/08/01 12:42:12;;;;;;;;;;;;;;;26.25;50.82;100122.31;1421007;92;20884;-87
2022/08/01 12:44:38;;;;;;;;;;;;;;;26.23;51.47;100122.55;1430015;92;20289;-87
2022/08/01 12:47:06;;;;;;;;;;;;;;;26.11;51.12;100121.37;1408483;91;20377;-86
2022/08/01 12:49:34;;;;;;;;;;;;;;;26.02;51.54;100127.53;1432487;91;20816;-86
2022/08/01 12:52:01;;;;;;;;;;;;;;;26.44;52.88;100124.91;1423306;91;20831;-86
2022/08/01 12:54:27;;;;;;;;;;;;;;;26.91;49.93;100125.51;1428896;90;20356;-87
2022/08/01 12:56:53;;;;;;;;;;;;;;;27.01;47.80;100132.34;1425430;92;20370;-87
2022/08/01 12:59:25;;;;;;;;;;;;;;;27.32;48.77;100127.08;1432903;91;20830;-86
2022/08/01 13:01:53;;;;;;;;;;;;;;;27.33;46.95;100123.27;1442030;91;20310;-86
2022/08/01 13:04:20;;;;;;;;;;;;;;;27.26;48.88;100132.23;1436049;91;20236;-86
2022/08/01 13:06:47;;;;;;;;;;;;;;;27.08;47.66;100127.23;1434488;91;20317;-87
2022/08/01 13:09:13;;;;;;;;;;;;;;;27.13;47.81;100124.52;1436841;91;20236;-87
2022/08/01 13:11:40;;;;;;;;;;;;;;;26.87;49.69;100123.02;1438487;91;20376;-87
2022/08/01 13:14:07;;;;;;;;;;;;;;;27.21;50.10;100127.58;1444037;91;20880;-87
2022/08/01 13:16:35;;;;;;;;;;;;;;;27.28;48.62;100123.28;1437411;91;20288;-87
2022/08/01 13:19:01;;;;;;;;;;;;;;;27.54;47.79;100123.37;1436868;91;20243;-87
2022/08/01 13:21:29;;;;;;;;;;;;;;;27.52;48.18;100126.89;1440449;90;20287;-87
2022/08/01 13:24:06;;;;;;;;;;;;;;;27.13;47.94;100124.00;1432306;91;20852;-87
2022/08/01 13:26:48;;;;;;;;;;;;;;;27.20;49.06;100127.31;1436876;90;20334;-87
2022/08/01 13:29:17;;;;;;;;;;;;;;;27.09;48.46;100127.50;1435048;91;20970;-87
2022/08/01 13:31:44;;;;;;;;;;;;;;;26.71;48.86;100130.82;1430977;91;20885;-87
2022/08/01 13:34:10;;;;;;;;;;;;;;;26.41;50.02;100135.44;1434958;91;20421;-87
2022/08/01 13:36:37;;;;;;;;;;;;;;;25.99;50.03;100138.34;1436389;91;20376;-87
2022/08/01 13:41:48;;;;;;;;;;;;;;;25.30;53.67;100143.52;1430448;91;20287;-87
2022/08/01 13:44:14;;;;;;;;;;;;;;;25.19;53.64;100140.66;1438688;90;20832;-87
2022/08/01 13:46:43;;;;;;;;;;;;;;;25.08;55.06;100146.17;1434848;91;20521;-87
2022/08/01 13:49:10;;;;;;;;;;;;;;;24.90;55.87;100137.80;1433392;90;20310;-87
2022/08/01 13:51:37;;;;;;;;;;;;;;;24.91;57.00;100139.44;1437651;91;20325;-87
2022/08/01 13:54:03;;;;;;;;;;;;;;;24.92;55.86;100137.03;1437986;91;20742;-87
2022/08/01 13:56:29;;;;;;;;;;;;;;;24.86;56.03;100143.41;1431173;91;20905;-87
2022/08/01 13:58:55;;;;;;;;;;;;;;;24.73;56.50;100134.59;1436664;91;20301;-87
2022/08/01 14:01:22;;;;;;;;;;;;;;;24.71;56.73;100135.89;1432498;90;20377;-87
2022/08/01 14:03:48;;;;;;;;;;;;;;;24.80;57.63;100136.30;1430003;90;20783;-87
2022/08/01 14:06:15;;;;;;;;;;;;;;;24.91;56.99;100132.66;1424613;91;20299;-87
2022/08/01 14:08:43;;;;;;;;;;;;;;;24.99;55.29;100138.47;1431445;91;20325;-87
2022/08/01 14:11:08;;;;;;;;;;;;;;;24.84;55.04;100138.27;1434401;91;20325;-87
2022/08/01 14:13:37;;;;;;;;;;;;;;;25.01;55.35;100134.72;1432804;91;20309;-87
2022/08/01 14:16:02;;;;;;;;;;;;;;;25.23;55.06;100140.16;1435328;91;20280;-87
2022/08/01 14:18:28;;;;;;;;;;;;;;;25.51;54.16;100134.55;1431515;91;20376;-87
2022/08/01 14:20:54;;;;;;;;;;;;;;;25.87;53.69;100132.27;1433211;91;20801;-87
2022/08/01 14:23:20;;;;;;;;;;;;;;;25.98;50.69;100134.02;1431185;91;20310;-87
2022/08/01 14:25:46;;;;;;;;;;;;;;;25.98;51.30;100129.95;1432043;91;20302;-87
2022/08/01 14:28:12;;;;;;;;;;;;;;;25.95;51.17;100129.10;1433500;91;20288;-88
2022/08/01 14:30:38;;;;;;;;;;;;;;;26.06;50.73;100128.09;1444436;90;20402;-87
2022/08/01 14:33:03;;;;;;;;;;;;;;;26.29;50.22;100130.20;1446583;90;20805;-87
2022/08/01 14:35:29;;;;;;;;;;;;;;;26.41;50.20;100130.83;1447586;90;20320;-87
2022/08/01 14:37:55;;;;;;;;;;;;;;;26.64;50.09;100124.78;1441334;90;20886;-87
2022/08/01 14:40:21;;;;;;;;;;;;;;;26.66;48.74;100130.78;1444492;89;20401;-87
2022/08/01 14:42:47;;;;;;;;;;;;;;;26.55;49.56;100132.05;1454279;89;20291;-87